Time;durP1;ratioP1;P1;durP2;ratioP2;P2;SDS_P1;SDS_P2;PMS_P1;PMS_P2;Temp;Humidity;BMP_temperature;BMP_pressure;BME280_temperature;BME280_humidity;BME280_pressure;Samples;Min_cycle;Max_cycle;Signal;HPM_P1;HPM_P2
2022/04/30 00:00:29;;;;;;;13.20;8.35;;;;;;;6.22;83.24;95936.63;5064796;28;20041;-75
2022/04/30 00:03:01;;;;;;;13.80;8.45;;;;;;;6.22;83.79;95934.00;5068369;28;20048;-75
2022/04/30 00:05:30;;;;;;;13.18;8.35;;;;;;;6.25;84.42;95936.19;5077059;28;20045;-75
2022/04/30 00:07:56;;;;;;;12.40;7.78;;;;;;;6.27;84.10;95926.28;5065409;28;20043;-75
2022/04/30 00:10:22;;;;;;;12.88;8.50;;;;;;;6.19;84.36;95931.88;5059076;28;20044;-75
2022/04/30 00:12:47;;;;;;;13.07;8.23;;;;;;;6.18;84.94;95930.28;5077034;28;20033;-75
2022/04/30 00:15:13;;;;;;;14.77;8.32;;;;;;;6.20;84.55;95933.47;5066178;28;20044;-74
2022/04/30 00:17:38;;;;;;;15.52;8.27;;;;;;;6.19;84.83;95926.63;5068106;28;20111;-75
2022/04/30 00:20:06;;;;;;;17.08;8.55;;;;;;;6.22;85.05;95926.16;5082023;28;20425;-75
2022/04/30 00:22:32;;;;;;;12.82;8.18;;;;;;;6.18;85.13;95920.63;5066020;28;20044;-75
2022/04/30 00:24:57;;;;;;;11.07;7.78;;;;;;;6.17;85.04;95918.25;5062033;28;20043;-74
2022/04/30 00:27:23;;;;;;;16.08;8.13;;;;;;;6.07;84.61;95930.06;5064615;28;20123;-74
2022/04/30 00:29:48;;;;;;;13.27;8.52;;;;;;;6.03;85.46;95923.72;5064360;28;20090;-74
2022/04/30 00:32:15;;;;;;;14.77;9.25;;;;;;;6.03;85.09;95931.56;5060572;28;20044;-74
2022/04/30 00:34:42;;;;;;;13.48;7.30;;;;;;;6.04;85.14;95920.06;5057365;28;20041;-74
2022/04/30 00:37:08;;;;;;;12.32;8.10;;;;;;;6.04;85.36;95924.50;5052039;28;20045;-74
2022/04/30 00:39:34;;;;;;;14.27;7.78;;;;;;;6.11;85.75;95919.19;5065591;28;20441;-74
2022/04/30 00:42:00;;;;;;;13.13;7.63;;;;;;;6.03;85.00;95922.91;5048904;28;20499;-74
2022/04/30 00:44:27;;;;;;;15.77;8.85;;;;;;;5.95;86.22;95916.22;5050728;28;20113;-73
2022/04/30 00:46:53;;;;;;;14.68;8.43;;;;;;;5.97;86.38;95908.94;5048983;28;20036;-75
2022/04/30 00:49:20;;;;;;;15.55;8.82;;;;;;;5.98;86.21;95905.31;5054263;28;20040;-74
2022/04/30 00:51:45;;;;;;;14.77;8.38;;;;;;;5.90;87.51;95913.47;5055522;28;20052;-74
2022/04/30 00:54:13;;;;;;;14.60;8.48;;;;;;;5.87;87.21;95903.50;5066662;28;20064;-74
2022/04/30 00:56:45;;;;;;;11.45;8.07;;;;;;;5.83;87.33;95910.19;5062838;28;20036;-75
2022/04/30 00:59:17;;;;;;;12.32;8.23;;;;;;;5.81;87.73;95904.41;5066720;28;20055;-75
2022/04/30 01:01:44;;;;;;;12.55;7.63;;;;;;;5.74;87.34;95904.53;5067415;28;20045;-75
2022/04/30 01:04:09;;;;;;;14.55;8.45;;;;;;;5.68;87.09;95908.84;5070471;28;20115;-75
2022/04/30 01:06:48;;;;;;;18.38;9.60;;;;;;;5.63;87.22;95908.75;5064971;28;20052;-74
2022/04/30 01:09:14;;;;;;;15.82;9.60;;;;;;;5.65;86.62;95906.69;5054371;28;20127;-74
2022/04/30 01:11:41;;;;;;;15.77;9.27;;;;;;;5.69;86.94;95902.59;5051546;28;20052;-74
2022/04/30 01:14:07;;;;;;;12.85;8.85;;;;;;;5.59;87.34;95891.94;5072106;28;20078;-75
2022/04/30 01:16:35;;;;;;;17.10;8.98;;;;;;;5.61;87.56;95894.31;5082447;28;20452;-75
2022/04/30 01:19:01;;;;;;;13.77;9.00;;;;;;;5.54;88.57;95894.44;5089188;28;20043;-75
2022/04/30 01:21:30;;;;;;;17.23;8.60;;;;;;;5.49;89.01;95894.34;5082705;28;20040;-75
2022/04/30 01:23:58;;;;;;;12.88;8.43;;;;;;;5.56;89.00;95881.97;5055986;28;20048;-75
2022/04/30 01:26:26;;;;;;;15.25;9.02;;;;;;;5.53;88.85;95892.84;5067098;28;20132;-75
2022/04/30 01:28:53;;;;;;;17.88;8.60;;;;;;;5.48;88.86;95883.06;5068476;28;20098;-75
2022/04/30 01:39:31;;;;;;;14.25;8.70;;;;;;;5.51;89.73;95874.00;5068778;28;20037;-75
2022/04/30 01:42:04;;;;;;;16.88;9.70;;;;;;;5.40;90.33;95877.41;5067883;28;20402;-75
2022/04/30 01:44:30;;;;;;;15.32;8.15;;;;;;;5.34;90.86;95872.09;5064062;28;20130;-75
2022/04/30 01:46:56;;;;;;;15.07;9.02;;;;;;;5.23;90.98;95867.66;5085051;28;20044;-74
2022/04/30 01:49:22;;;;;;;17.88;9.77;;;;;;;5.25;91.79;95870.81;5078528;28;20049;-75
2022/04/30 01:51:49;;;;;;;14.60;9.13;;;;;;;5.34;90.29;95868.66;5066683;28;20044;-74
2022/04/30 01:54:15;;;;;;;17.13;9.52;;;;;;;5.22;90.78;95863.44;5071098;28;20044;-75
2022/04/30 01:56:40;;;;;;;15.18;9.70;;;;;;;5.12;91.62;95865.84;5079542;28;20845;-75
2022/04/30 01:59:06;;;;;;;16.70;9.88;;;;;;;5.07;92.32;95861.28;5071286;28;20041;-75
2022/04/30 02:01:33;;;;;;;15.05;10.05;;;;;;;5.08;92.18;95859.47;5065750;28;20040;-75
2022/04/30 02:03:59;;;;;;;16.52;9.05;;;;;;;5.11;92.14;95859.03;5070174;28;20051;-75
2022/04/30 02:06:25;;;;;;;14.73;9.20;;;;;;;5.14;92.04;95853.34;5079471;28;20041;-75
2022/04/30 02:08:51;;;;;;;14.55;9.07;;;;;;;5.03;91.91;95853.13;5057073;28;20619;-75
2022/04/30 02:11:16;;;;;;;16.30;9.77;;;;;;;4.98;92.71;95849.59;5055907;28;20037;-75
2022/04/30 02:13:52;;;;;;;15.55;9.48;;;;;;;4.94;92.57;95843.22;5068671;28;20048;-75
2022/04/30 02:16:23;;;;;;;17.60;10.07;;;;;;;4.98;92.30;95845.16;5067218;28;20040;-75
2022/04/30 02:18:50;;;;;;;16.13;9.60;;;;;;;5.01;91.89;95839.50;5061499;28;20041;-75
2022/04/30 02:21:21;;;;;;;15.95;9.73;;;;;;;4.98;92.25;95833.94;5055181;28;20165;-75
2022/04/30 02:23:51;;;;;;;16.98;9.82;;;;;;;4.93;92.64;95831.19;5066840;28;20505;-75
2022/04/30 02:26:17;;;;;;;18.80;10.27;;;;;;;4.91;92.86;95834.03;5066967;28;20559;-75
2022/04/30 02:28:43;;;;;;;16.48;9.68;;;;;;;4.97;92.82;95827.94;5063348;28;20078;-75
2022/04/30 02:31:23;;;;;;;16.70;9.63;;;;;;;4.89;92.89;95825.66;5061975;28;20036;-75
2022/04/30 02:33:49;;;;;;;19.00;10.57;;;;;;;4.82;92.97;95827.56;5067043;28;20040;-75
2022/04/30 02:36:15;;;;;;;15.35;10.15;;;;;;;4.83;93.96;95821.34;5068974;28;20708;-75
2022/04/30 02:38:41;;;;;;;16.20;10.13;;;;;;;4.95;92.93;95819.53;5051214;28;20491;-75
2022/04/30 02:41:08;;;;;;;17.92;10.88;;;;;;;4.97;92.31;95807.06;5060670;28;20051;-75
2022/04/30 02:43:33;;;;;;;19.90;10.65;;;;;;;4.87;92.73;95806.84;5070151;28;20037;-75
2022/04/30 02:45:59;;;;;;;17.95;10.05;;;;;;;4.76;94.55;95805.00;5054638;28;20505;-75
2022/04/30 02:48:25;;;;;;;15.88;10.70;;;;;;;4.52;96.62;95794.53;5067664;28;20040;-75
2022/04/30 02:50:53;;;;;;;17.60;10.20;;;;;;;4.75;94.79;95798.97;5063464;28;20067;-75
2022/04/30 02:53:19;;;;;;;16.08;10.35;;;;;;;4.65;95.32;95791.72;5055832;28;20039;-74
2022/04/30 02:55:45;;;;;;;17.73;10.63;;;;;;;4.60;96.26;95802.03;5052796;28;20466;-74
2022/04/30 03:00:54;;;;;;;17.42;10.82;;;;;;;4.72;96.13;95799.44;5070600;28;20036;-74
2022/04/30 03:03:21;;;;;;;17.80;10.70;;;;;;;4.74;95.57;95802.63;5069133;28;20067;-74
2022/04/30 03:05:50;;;;;;;16.30;10.40;;;;;;;4.80;95.54;95795.72;5063824;28;20063;-74
2022/04/30 03:08:19;;;;;;;15.77;10.13;;;;;;;4.75;95.41;95787.78;5070523;28;20048;-74
2022/04/30 03:10:47;;;;;;;20.35;10.98;;;;;;;4.69;95.77;95779.81;5065753;28;20051;-74
2022/04/30 03:13:14;;;;;;;19.55;10.95;;;;;;;4.54;95.85;95779.47;5051520;28;20080;-74
2022/04/30 03:15:43;;;;;;;21.30;12.20;;;;;;;4.49;95.92;95785.34;5066552;28;20119;-74
2022/04/30 03:21:42;;;;;;;18.85;11.65;;;;;;;4.57;95.20;95773.81;5053397;28;20099;-74
2022/04/30 03:23:43;;;;;;;20.75;11.77;;;;;;;4.56;95.30;95769.59;5063997;28;20313;-73
2022/04/30 03:26:10;;;;;;;19.60;11.82;;;;;;;4.54;95.62;95774.25;5076562;28;20044;-74
2022/04/30 03:28:37;;;;;;;19.65;11.43;;;;;;;4.44;95.42;95766.19;5065011;28;20040;-74
2022/04/30 03:31:07;;;;;;;22.55;12.25;;;;;;;4.38;95.91;95767.88;5067089;28;20045;-73
2022/04/30 03:33:33;;;;;;;21.38;12.05;;;;;;;4.38;96.12;95772.28;5068045;28;20124;-74
2022/04/30 03:35:59;;;;;;;19.25;11.68;;;;;;;4.41;95.69;95777.06;5070374;28;20107;-74
2022/04/30 03:38:24;;;;;;;22.10;12.55;;;;;;;4.45;95.97;95778.19;5065019;28;21051;-73
2022/04/30 03:40:50;;;;;;;23.17;12.80;;;;;;;4.42;95.79;95776.81;5061250;28;20041;-74
2022/04/30 03:43:16;;;;;;;22.17;12.70;;;;;;;4.42;95.91;95778.66;5050847;28;20047;-73
2022/04/30 03:45:42;;;;;;;19.63;12.05;;;;;;;4.33;96.75;95776.34;5081553;28;20041;-74
2022/04/30 03:48:08;;;;;;;23.30;12.77;;;;;;;4.05;99.84;95783.97;5070451;28;20040;-73
2022/04/30 03:50:34;;;;;;;20.63;12.38;;;;;;;4.18;98.06;95778.59;5072454;28;20554;-74
2022/04/30 03:52:59;;;;;;;20.88;11.77;;;;;;;4.22;98.79;95784.94;5050116;28;20041;-74
2022/04/30 03:55:26;;;;;;;23.52;12.80;;;;;;;4.28;99.51;95791.88;5066135;28;20040;-74
2022/04/30 03:57:53;;;;;;;21.05;11.80;;;;;;;4.28;99.08;95794.47;5072400;28;20044;-73
2022/04/30 04:00:20;;;;;;;24.00;12.13;;;;;;;4.40;98.44;95785.91;5059746;28;20049;-74
2022/04/30 04:02:46;;;;;;;21.55;13.18;;;;;;;4.48;97.65;95788.16;5058263;28;20040;-74
2022/04/30 04:05:12;;;;;;;24.17;12.73;;;;;;;4.49;98.12;95792.38;5069875;28;20048;-73
2022/04/30 04:07:42;;;;;;;24.33;13.20;;;;;;;4.54;97.81;95792.50;5061512;28;20029;-73
2022/04/30 04:10:12;;;;;;;25.42;13.50;;;;;;;4.55;97.29;95794.06;5069009;28;20040;-74
2022/04/30 04:12:38;;;;;;;20.65;12.70;;;;;;;4.62;96.82;95794.78;5068031;28;20452;-74
2022/04/30 04:17:49;;;;;;;;;;;;;;;4.63;96.91;95793.75;5068547;28;20476;-73
2022/04/30 04:20:17;;;;;;;25.15;13.48;;;;;;;4.58;97.02;95793.63;5069737;28;19950;-73
2022/04/30 04:22:44;;;;;;;24.52;13.43;;;;;;;4.60;96.29;95807.25;5057802;28;20044;-74
2022/04/30 04:27:55;;;;;;;28.77;13.75;;;;;;;4.69;96.30;95816.31;5059189;28;20049;-74
2022/04/30 04:30:25;;;;;;;24.08;13.40;;;;;;;4.77;96.73;95806.56;5072439;28;20064;-74
2022/04/30 04:32:51;;;;;;;29.35;13.52;;;;;;;4.79;96.32;95809.78;5064186;28;20383;-74
2022/04/30 04:35:17;;;;;;;26.90;14.93;;;;;;;4.83;95.46;95810.91;5069425;28;20461;-73
2022/04/30 04:37:44;;;;;;;28.77;14.98;;;;;;;4.86;96.66;95813.84;5078736;28;20513;-73
2022/04/30 04:40:11;;;;;;;27.95;14.35;;;;;;;4.92;95.38;95804.34;5065585;28;20074;-74
2022/04/30 04:42:37;;;;;;;25.73;15.05;;;;;;;4.99;95.40;95799.81;5057003;28;20085;-74
2022/04/30 04:45:04;;;;;;;29.85;14.80;;;;;;;5.01;95.50;95810.00;5060068;28;20543;-74
2022/04/30 04:47:30;;;;;;;26.30;14.38;;;;;;;4.98;96.00;95803.41;5050261;28;20094;-74
2022/04/30 04:49:56;;;;;;;25.92;14.48;;;;;;;5.01;95.56;95813.44;5069404;28;20040;-74
2022/04/30 04:52:22;;;;;;;30.38;15.43;;;;;;;5.03;95.44;95810.59;5061621;28;20044;-74
2022/04/30 04:54:48;;;;;;;27.33;15.48;;;;;;;5.10;95.80;95815.69;5070703;28;20046;-74
2022/04/30 04:57:15;;;;;;;31.33;16.08;;;;;;;5.16;96.14;95820.00;5064820;28;20037;-74
2022/04/30 04:59:41;;;;;;;27.52;14.88;;;;;;;5.21;95.94;95817.50;5057185;28;20061;-73
2022/04/30 05:02:06;;;;;;;31.88;16.48;;;;;;;5.22;96.41;95813.88;5062685;28;20076;-74
2022/04/30 05:04:33;;;;;;;29.77;16.50;;;;;;;5.30;95.36;95818.75;5065250;28;20528;-73
2022/04/30 05:06:59;;;;;;;34.65;16.02;;;;;;;5.29;94.82;95819.78;5052457;28;20064;-74
2022/04/30 05:09:25;;;;;;;31.45;15.98;;;;;;;5.33;95.05;95826.13;5066112;28;20078;-73
2022/04/30 05:11:52;;;;;;;27.50;14.95;;;;;;;5.46;95.60;95824.28;5076832;28;20052;-74
2022/04/30 05:14:18;;;;;;;27.88;15.60;;;;;;;5.53;95.20;95822.34;5065767;28;20128;-74
2022/04/30 05:16:43;;;;;;;29.88;15.90;;;;;;;5.58;95.43;95830.31;5078603;28;20629;-74
2022/04/30 05:19:09;;;;;;;27.63;15.02;;;;;;;5.67;94.77;95815.84;5066081;28;20175;-74
2022/04/30 05:21:35;;;;;;;34.47;16.00;;;;;;;5.75;94.26;95826.97;5072165;28;20041;-73
2022/04/30 05:24:00;;;;;;;24.38;14.27;;;;;;;5.79;94.56;95825.47;5052841;28;20037;-74
2022/04/30 05:26:26;;;;;;;28.98;14.32;;;;;;;5.86;94.50;95824.34;5063487;28;20494;-74
2022/04/30 05:28:51;;;;;;;26.60;14.70;;;;;;;5.89;93.38;95829.09;5071368;28;20041;-74
2022/04/30 05:31:17;;;;;;;28.42;15.25;;;;;;;5.96;93.41;95829.00;5076495;28;20597;-74
2022/04/30 05:33:43;;;;;;;33.80;14.32;;;;;;;6.22;92.05;95837.31;5066522;28;20059;-74
2022/04/30 05:36:08;;;;;;;26.23;13.52;;;;;;;6.31;92.47;95846.38;5070845;28;20040;-74
2022/04/30 05:38:34;;;;;;;22.42;13.02;;;;;;;6.47;91.89;95851.91;5054790;28;20075;-74
2022/04/30 05:41:01;;;;;;;20.42;12.18;;;;;;;6.50;91.07;95848.81;5071616;28;20639;-74
2022/04/30 05:43:27;;;;;;;22.30;12.93;;;;;;;6.41;91.63;95830.88;5059321;28;20287;-74
2022/04/30 05:45:52;;;;;;;19.50;11.57;;;;;;;6.49;91.15;95847.22;5068457;28;20613;-74
2022/04/30 05:48:18;;;;;;;20.33;12.10;;;;;;;6.54;90.82;95844.69;5057658;28;20032;-74
2022/04/30 05:50:44;;;;;;;18.73;11.27;;;;;;;6.66;90.83;95853.25;5072164;28;20033;-74
2022/04/30 05:53:10;;;;;;;18.95;11.45;;;;;;;6.62;90.43;95846.91;5070732;28;20059;-74
2022/04/30 05:55:36;;;;;;;20.73;11.70;;;;;;;6.73;89.28;95843.44;5061879;28;20071;-74
2022/04/30 05:58:02;;;;;;;20.90;11.25;;;;;;;6.75;89.23;95854.47;5067855;28;20502;-74
2022/04/30 06:00:27;;;;;;;19.08;11.10;;;;;;;6.83;88.51;95852.50;5087277;28;20036;-74
2022/04/30 06:02:54;;;;;;;16.20;10.77;;;;;;;6.94;88.28;95849.03;5069750;28;20040;-74
2022/04/30 06:05:23;;;;;;;19.30;11.38;;;;;;;7.09;88.18;95841.38;5070389;28;20075;-74
2022/04/30 06:07:49;;;;;;;16.83;10.32;;;;;;;7.28;86.14;95852.44;5065166;28;20124;-74
2022/04/30 06:10:15;;;;;;;17.35;10.20;;;;;;;7.42;86.46;95855.50;5052370;28;20196;-74
2022/04/30 06:12:41;;;;;;;17.77;10.75;;;;;;;7.54;86.75;95851.97;5060502;28;20037;-74
2022/04/30 06:15:07;;;;;;;16.45;10.30;;;;;;;7.70;84.40;95851.16;5078053;28;20124;-74
2022/04/30 06:17:33;;;;;;;15.88;10.10;;;;;;;7.89;83.92;95854.28;5065223;28;20072;-74
2022/04/30 06:19:59;;;;;;;16.90;10.32;;;;;;;7.98;82.84;95857.28;5070725;28;20051;-74
2022/04/30 06:22:25;;;;;;;16.40;10.02;;;;;;;8.05;82.63;95852.63;5070753;28;20115;-74
2022/04/30 06:24:51;;;;;;;14.85;10.43;;;;;;;8.20;82.31;95848.59;5063993;28;20505;-74
2022/04/30 06:27:17;;;;;;;17.75;10.45;;;;;;;8.26;81.44;95843.19;5070127;28;20041;-74
2022/04/30 06:29:42;;;;;;;17.02;10.05;;;;;;;8.23;80.52;95848.09;5070531;28;20062;-74
2022/04/30 06:32:08;;;;;;;17.45;10.18;;;;;;;8.47;79.85;95844.19;5069167;28;20048;-74
2022/04/30 06:34:34;;;;;;;17.13;10.25;;;;;;;8.58;80.67;95844.31;5067253;28;20041;-74
2022/04/30 06:37:00;;;;;;;18.75;9.93;;;;;;;8.83;79.16;95841.94;5072299;28;20044;-74
2022/04/30 06:39:26;;;;;;;18.35;10.43;;;;;;;8.78;78.01;95852.38;5076570;28;20779;-73
2022/04/30 06:41:51;;;;;;;14.07;10.02;;;;;;;8.80;77.37;95846.88;5072886;28;20041;-75
2022/04/30 06:44:17;;;;;;;17.33;10.20;;;;;;;8.89;77.42;95852.44;5073712;28;20037;-76
2022/04/30 06:46:43;;;;;;;18.08;10.63;;;;;;;8.90;76.98;95852.19;5059673;28;20041;-75
2022/04/30 06:49:08;;;;;;;16.10;10.15;;;;;;;9.06;77.00;95845.22;5069642;28;20537;-75
2022/04/30 06:51:34;;;;;;;19.85;10.77;;;;;;;9.34;75.16;95840.72;5069519;28;20037;-74
2022/04/30 06:59:31;;;;;;;20.17;12.70;;;;;;;9.88;75.57;95839.69;5067964;28;20521;-76
2022/04/30 07:02:05;;;;;;;21.10;13.02;;;;;;;9.87;74.46;95828.38;5065934;28;20040;-77
2022/04/30 07:04:32;;;;;;;22.00;13.18;;;;;;;10.13;73.19;95841.63;5066145;28;20036;-77
2022/04/30 07:06:58;;;;;;;23.52;12.95;;;;;;;10.36;73.17;95834.38;5073540;28;20069;-75
2022/04/30 07:09:24;;;;;;;21.23;12.63;;;;;;;10.40;71.92;95835.41;5067163;28;20079;-75
2022/04/30 07:11:50;;;;;;;23.23;13.52;;;;;;;10.25;73.02;95838.00;5075572;28;20040;-75
2022/04/30 07:14:16;;;;;;;21.13;13.18;;;;;;;10.41;72.88;95837.00;5075212;28;20052;-74
2022/04/30 07:16:42;;;;;;;22.50;13.50;;;;;;;10.33;72.27;95840.09;5060026;28;20135;-74
2022/04/30 07:19:08;;;;;;;22.52;14.90;;;;;;;10.47;73.02;95841.22;5068161;28;20040;-75
2022/04/30 07:21:34;;;;;;;21.38;13.85;;;;;;;10.43;72.60;95844.63;5060971;28;20041;-75
2022/04/30 07:24:00;;;;;;;26.83;13.82;;;;;;;10.45;72.21;95845.97;5062269;28;20045;-74
2022/04/30 07:26:26;;;;;;;28.50;15.20;;;;;;;10.45;72.40;95840.69;5068055;28;20131;-75
2022/04/30 07:28:52;;;;;;;21.00;14.02;;;;;;;10.47;72.64;95846.47;5065665;28;20116;-74
2022/04/30 07:31:18;;;;;;;22.80;14.13;;;;;;;10.52;73.13;95838.59;5066732;28;20522;-75
2022/04/30 07:33:44;;;;;;;22.58;13.68;;;;;;;10.70;72.40;95834.69;5065533;28;20041;-74
2022/04/30 07:36:09;;;;;;;23.02;13.48;;;;;;;10.91;72.28;95840.75;5061632;28;20548;-74
2022/04/30 07:38:35;;;;;;;20.85;13.18;;;;;;;10.95;70.73;95834.97;5051113;28;20046;-74
2022/04/30 07:41:01;;;;;;;19.90;13.00;;;;;;;11.16;70.76;95841.81;5072853;28;20072;-74
2022/04/30 07:43:26;;;;;;;24.02;13.88;;;;;;;11.14;70.67;95838.66;5066629;28;20098;-74
2022/04/30 07:45:52;;;;;;;21.27;13.35;;;;;;;11.29;69.58;95834.41;5059285;28;20144;-74
2022/04/30 07:48:17;;;;;;;24.67;13.80;;;;;;;11.26;69.93;95841.81;5063693;28;20048;-74
2022/04/30 07:50:45;;;;;;;22.08;13.93;;;;;;;11.45;69.79;95838.63;5058636;28;20110;-76
2022/04/30 07:53:14;;;;;;;23.45;14.20;;;;;;;11.52;68.22;95836.50;5062216;28;20082;-74
2022/04/30 07:55:40;;;;;;;22.58;13.85;;;;;;;11.47;68.52;95841.78;5065582;28;20043;-75
2022/04/30 07:58:06;;;;;;;21.17;13.50;;;;;;;11.72;67.94;95842.78;5056165;28;20045;-76
2022/04/30 08:00:31;;;;;;;21.52;13.10;;;;;;;11.96;67.31;95841.13;5055031;28;20043;-73
2022/04/30 08:02:58;;;;;;;23.02;13.63;;;;;;;11.78;67.33;95853.03;5062214;28;20045;-74
2022/04/30 08:05:24;;;;;;;21.65;13.30;;;;;;;11.83;66.21;95839.06;5068652;28;20039;-73
2022/04/30 08:07:50;;;;;;;24.90;14.15;;;;;;;11.79;67.30;95843.28;5065954;28;20044;-73
2022/04/30 08:10:17;;;;;;;22.08;13.75;;;;;;;11.95;66.53;95842.22;5064456;28;20048;-73
2022/04/30 08:12:42;;;;;;;24.60;15.15;;;;;;;11.80;67.38;95855.41;5058840;28;20546;-73
2022/04/30 08:15:08;;;;;;;21.90;13.35;;;;;;;11.94;64.69;95851.19;5060392;28;20155;-73
2022/04/30 08:17:34;;;;;;;23.02;12.65;;;;;;;11.74;64.90;95851.22;5056236;28;20116;-72
2022/04/30 08:20:01;;;;;;;22.42;14.43;;;;;;;11.70;65.89;95850.94;5062147;28;20148;-76
2022/04/30 08:22:27;;;;;;;27.92;15.68;;;;;;;11.84;65.02;95856.47;5062416;28;20520;-73
2022/04/30 08:24:53;;;;;;;19.73;13.85;;;;;;;11.92;64.81;95866.47;5064307;28;20041;-71
2022/04/30 08:27:19;;;;;;;22.35;14.90;;;;;;;11.91;63.28;95862.25;5064654;28;20040;-72
2022/04/30 08:29:45;;;;;;;25.25;14.27;;;;;;;11.91;63.46;95861.44;5063980;28;20036;-73
2022/04/30 08:32:10;;;;;;;24.45;15.13;;;;;;;11.88;63.45;95873.34;5065271;28;20087;-75
2022/04/30 08:34:36;;;;;;;24.05;15.35;;;;;;;11.85;64.23;95863.31;5067803;28;20449;-74
2022/04/30 08:37:02;;;;;;;23.33;14.85;;;;;;;11.97;64.32;95870.97;5081310;28;20036;-74
2022/04/30 08:39:27;;;;;;;27.70;14.82;;;;;;;12.08;63.40;95876.97;5068818;28;20111;-72
2022/04/30 08:41:53;;;;;;;26.50;15.05;;;;;;;12.34;62.59;95879.50;5070602;28;20040;-72
2022/04/30 08:44:19;;;;;;;22.42;14.73;;;;;;;12.45;61.36;95876.53;5063620;28;20040;-73
2022/04/30 08:46:45;;;;;;;27.10;15.38;;;;;;;12.33;60.84;95877.94;5069516;28;21300;-75
2022/04/30 08:49:11;;;;;;;27.13;16.00;;;;;;;12.35;60.17;95875.81;5069175;28;20029;-74
2022/04/30 08:51:38;;;;;;;24.10;15.48;;;;;;;12.70;60.14;95871.41;5072484;28;20047;-74
2022/04/30 08:54:04;;;;;;;25.75;15.25;;;;;;;12.71;58.76;95878.25;5065849;28;20052;-73
2022/04/30 08:56:30;;;;;;;25.85;15.88;;;;;;;12.76;58.97;95880.88;5056811;28;20193;-73
2022/04/30 08:59:04;;;;;;;25.50;16.10;;;;;;;12.69;58.40;95880.41;5058990;28;20071;-73
2022/04/30 09:02:01;;;;;;;25.25;16.38;;;;;;;12.56;60.10;95879.94;5068788;28;20486;-73
2022/04/30 09:04:43;;;;;;;25.27;15.68;;;;;;;12.75;60.69;95872.16;5037875;28;20083;-72
2022/04/30 09:07:15;;;;;;;26.35;16.17;;;;;;;12.99;59.24;95868.84;5064115;28;20094;-72
2022/04/30 09:09:40;;;;;;;25.20;16.60;;;;;;;12.88;59.71;95878.69;5070988;28;20040;-72
2022/04/30 09:12:08;;;;;;;26.15;16.65;;;;;;;12.95;59.45;95881.81;5069749;28;20506;-75
2022/04/30 09:14:34;;;;;;;25.25;15.55;;;;;;;12.99;60.20;95869.63;5070126;28;20037;-77
2022/04/30 09:17:11;;;;;;;25.55;15.65;;;;;;;13.17;59.56;95872.66;5067840;28;20047;-76
2022/04/30 09:20:07;;;;;;;27.95;16.92;;;;;;;13.38;59.31;95869.88;5086875;28;20048;-76
2022/04/30 09:22:36;;;;;;;;;;;;;;;13.43;59.65;95867.19;5094844;28;20053;-75
2022/04/30 09:25:07;;;;;;;29.73;16.38;;;;;;;13.23;60.33;95871.56;5069836;28;19971;-75
2022/04/30 09:27:32;;;;;;;25.15;15.57;;;;;;;13.31;60.24;95860.38;5059886;28;20045;-75
2022/04/30 09:29:58;;;;;;;26.00;16.65;;;;;;;13.30;59.92;95864.09;5071298;28;20113;-75
2022/04/30 09:32:28;;;;;;;28.40;15.25;;;;;;;12.94;61.14;95872.31;5068991;28;20708;-76
2022/04/30 09:37:41;;;;;;;22.25;15.35;;;;;;;13.29;61.64;95873.09;5078419;28;20093;-75
2022/04/30 09:40:13;;;;;;;22.35;15.27;;;;;;;12.94;59.76;95872.31;5076558;28;20517;-75
2022/04/30 09:42:39;;;;;;;23.40;15.07;;;;;;;13.13;60.62;95868.97;5070213;28;20045;-76
2022/04/30 09:45:06;;;;;;;22.60;14.73;;;;;;;12.73;60.38;95876.13;5068413;28;20045;-75
2022/04/30 09:47:33;;;;;;;23.77;14.88;;;;;;;12.77;60.87;95871.88;5068571;28;20055;-76
2022/04/30 09:55:33;;;;;;;23.98;14.93;;;;;;;12.83;60.73;95882.16;5069752;28;20055;-76
2022/04/30 09:58:03;;;;;;;25.92;14.68;;;;;;;13.01;61.65;95885.19;5058390;28;20045;-77
2022/04/30 10:00:32;;;;;;;20.15;14.32;;;;;;;13.03;60.15;95885.72;5069241;28;20174;-77
2022/04/30 10:03:01;;;;;;;22.45;14.00;;;;;;;12.94;61.53;95885.53;5068682;28;20043;-76
2022/04/30 10:05:30;;;;;;;21.30;14.00;;;;;;;13.03;62.66;95884.91;5064516;28;20087;-77
2022/04/30 10:07:56;;;;;;;21.45;14.35;;;;;;;13.13;62.49;95879.56;5068995;28;20093;-73
2022/04/30 10:10:29;;;;;;;21.40;14.15;;;;;;;13.08;61.74;95876.97;5072918;28;20714;-75
2022/04/30 10:13:07;;;;;;;22.27;14.00;;;;;;;13.31;62.04;95880.75;5066967;28;20605;-76
2022/04/30 10:16:05;;;;;;;21.58;13.90;;;;;;;13.17;62.34;95885.88;5073586;28;20612;-78
2022/04/30 10:18:34;;;;;;;20.83;13.40;;;;;;;13.30;61.97;95882.63;5073417;28;20053;-78
2022/04/30 10:21:01;;;;;;;17.15;13.60;;;;;;;13.26;62.63;95878.94;5071528;28;20045;-77
2022/04/30 10:23:27;;;;;;;19.02;12.45;;;;;;;13.23;63.16;95881.34;5066305;28;20556;-77
2022/04/30 10:25:54;;;;;;;22.00;13.23;;;;;;;12.88;63.51;95889.25;5071888;28;20036;-77
2022/04/30 10:28:21;;;;;;;20.23;12.98;;;;;;;12.88;63.54;95889.25;5057050;28;20041;-77
2022/04/30 10:31:10;;;;;;;17.98;12.70;;;;;;;12.87;64.09;95892.94;5054949;28;20056;-78
2022/04/30 10:33:49;;;;;;;19.05;12.63;;;;;;;12.77;63.71;95891.19;5073735;28;20036;-77
2022/04/30 10:36:14;;;;;;;18.60;12.65;;;;;;;12.82;64.11;95895.63;5070567;28;20816;-77
2022/04/30 10:38:40;;;;;;;20.05;12.55;;;;;;;12.64;64.00;95895.22;5058674;28;20037;-78
2022/04/30 10:41:10;;;;;;;18.45;12.43;;;;;;;12.43;64.92;95899.78;5088352;28;20404;-77
2022/04/30 10:43:38;;;;;;;21.48;13.48;;;;;;;12.43;65.27;95899.78;5070133;28;20098;-77
2022/04/30 10:46:05;;;;;;;20.40;12.48;;;;;;;12.37;65.84;95900.06;5073456;28;20077;-76
2022/04/30 10:48:35;;;;;;;17.45;11.45;;;;;;;12.39;65.29;95892.69;5064391;28;20029;-76
2022/04/30 10:51:12;;;;;;;18.48;11.55;;;;;;;12.56;65.35;95892.34;5067184;28;20499;-76
2022/04/30 10:53:47;;;;;;;16.17;11.13;;;;;;;12.60;64.39;95894.16;5069709;28;20090;-76
2022/04/30 10:56:14;;;;;;;21.00;11.75;;;;;;;12.55;64.30;95891.53;5070598;28;20041;-76
2022/04/30 10:58:41;;;;;;;15.57;10.88;;;;;;;12.74;65.53;95888.28;5056656;28;20040;-76
2022/04/30 11:01:17;;;;;;;17.38;11.13;;;;;;;12.81;67.30;95891.41;5054901;28;20049;-78
2022/04/30 11:03:45;;;;;;;16.80;11.63;;;;;;;12.75;69.98;95889.88;5070103;28;20071;-79
2022/04/30 11:06:12;;;;;;;21.42;12.30;;;;;;;12.67;71.93;95887.78;5070094;28;20158;-78
2022/04/30 11:08:38;;;;;;;21.13;11.88;;;;;;;12.75;73.54;95895.16;5071142;28;20075;-77
2022/04/30 11:11:04;;;;;;;21.13;11.75;;;;;;;12.81;72.92;95888.75;5071715;28;20084;-77
2022/04/30 11:13:30;;;;;;;17.00;12.35;;;;;;;12.71;72.77;95894.09;5071026;28;20048;-77
2022/04/30 11:15:59;;;;;;;20.70;12.95;;;;;;;12.71;76.91;95888.81;5063424;28;20044;-76
2022/04/30 11:18:25;;;;;;;17.27;12.15;;;;;;;12.82;73.94;95885.06;5070708;28;20048;-77
2022/04/30 11:21:01;;;;;;;19.90;13.05;;;;;;;13.07;73.20;95875.38;5070953;28;20040;-77
2022/04/30 11:23:28;;;;;;;19.92;12.98;;;;;;;12.96;73.15;95886.03;5083374;28;20055;-78
2022/04/30 11:25:54;;;;;;;22.52;12.27;;;;;;;12.89;71.55;95885.53;5068081;28;20068;-77
2022/04/30 11:28:19;;;;;;;17.63;11.75;;;;;;;12.86;70.37;95880.81;5070946;28;20122;-77
2022/04/30 11:30:46;;;;;;;16.92;11.32;;;;;;;12.91;69.37;95872.84;5071625;28;20056;-77
2022/04/30 11:33:12;;;;;;;18.33;11.93;;;;;;;12.93;70.84;95881.28;5071262;28;20657;-76
2022/04/30 11:35:38;;;;;;;18.48;11.13;;;;;;;12.74;69.32;95875.06;5078567;28;20498;-76
2022/04/30 11:38:09;;;;;;;17.63;11.00;;;;;;;12.62;69.04;95878.06;5069890;28;20036;-77
2022/04/30 11:40:34;;;;;;;16.52;11.95;;;;;;;12.47;68.49;95878.94;5073148;28;20052;-76
2022/04/30 11:43:04;;;;;;;21.63;11.05;;;;;;;12.56;69.17;95881.78;5070695;28;20037;-77
2022/04/30 11:45:31;;;;;;;19.35;11.48;;;;;;;12.41;70.09;95880.00;5062277;28;20436;-77
2022/04/30 11:47:58;;;;;;;21.63;11.32;;;;;;;12.40;69.98;95883.72;5070451;28;20044;-77
2022/04/30 11:50:25;;;;;;;20.10;12.52;;;;;;;12.10;70.87;95874.88;5073753;28;20032;-78
2022/04/30 11:52:51;;;;;;;18.33;11.32;;;;;;;12.15;71.69;95882.75;5065962;28;20086;-77
2022/04/30 11:55:20;;;;;;;16.33;11.20;;;;;;;12.07;71.22;95888.59;5070605;28;20049;-76
2022/04/30 11:57:45;;;;;;;17.92;11.07;;;;;;;11.95;71.45;95889.69;5069946;28;20086;-78